Terminal Aerodrome Forecast
Issued by NWS

Home | Current Version | Previous Version | Text Only | Print | Product List | Glossary On
Versions: 1 2 3 4 5 6 7 8 9 10 11 12 13 14 15 16 17
000
FTAK31 PAJN 301100 AAA
TAFAPG
TAF AMD
PAPG 301149Z 3012/3112 00000KT 6SM BR SCT003
      TEMPO 3012/3016 1/2SM FG OVC003
     FM301600 VRB03KT 2SM BR SCT005 OVC015
     FM302100 VRB04KT P6SM BKN025
      AMD LTD TO CLD VIS AND WIND 3012/3015=

USA.gov is the U.S. government's official web portal to all federal, state and local government web resources and services.